Key West International Airport Key West US
ICAO: KEYW
IATA: EYW
Category: Medium
Scheduled Services: Yes

Elevation: 3 ft
TransAlt. 18000 ft.

Airport Communications:
NAVY KEY WEST:124.45
ASOS:119.65
ATIS:119.675
CLNC DEL:121.9
CTAF:118.2
MIAMI RDO:122.2
GND:121.9
TWR:118.2
UNICOM:122.95

KEYW Zoom In..

If you have problems with the map follow the link
https://www.worldairports.se/pages/airport.php?
ICAO=KEYW

Runways:

(A) RW 09 length 4801 ft width 100 ft
---- / hdg 93

(B) RW 27 length 4801 ft width 100 ft
---- / hdg 273

Location; KEYW
Day. 22 / Time. 15.53 Zulu
* Altimeter: 30.17
* Temperature: 28° c. 82.4°f.
* Wind from: 130° Speed 10 kn.
Dewpoint: 22° c.
Visibility: 10 Statute Miles.
Clouds: Few 2000 ft.

KEYW 221553Z 13010KT 10SM FEW020 28/22 A3017 RMK AO2 SLP215 T02830222


Wind From 130°
Speed 10 kn.

 
 
jpsmedia.com for Web Design worldairports.se 2019   terms of use